Portada
METAR-TAF:

METAR-TAF

Aeroports :

Biskra, Algèria

latitud: 34-48N, longitud: 005-44E, altitud: 87 m

Observació

L'informe es va fer fa 1 hora i 14 minuts, a les 01:00 UTC
Vent 3 kt del Nord-Oest
Temperatura 13°C
Humitat 72%
Pressió 1017 hPa
Visibilitat 10 km o més
Núvols disperses a una alçada de 4000 ft

METAR: DAUB 190100Z 31003KT 9999 SCT040 13/08 Q1017

Hora: 03:14 (02:14 UTC)

Pronòstic

L'informe es va fer fa 3 hores i 14 minuts, a les 23:00 UTC
Pronòstic vàlid del 19 a les 00 UTC al 19 a les 24 UTC
Vent 8 kt del Nord-Oest
Visibilitat 10 km o més
Escasses núvols a una alçada de 3300 ft, Cumulus congestus.
Núvols disperses a una alçada de 4000 ft

TAF: DAUB 182300Z 1900/1924 31008KT 9999 FEW033TCU SCT040

Observacions i pronòstics meteorològics de més de 4000 aeroports (METAR i TAF).

Les estacions disponibles són els punts grocs i vermells al mapa.

Posi el ratolí al punt desitjat per veure el nom de l'estació.

Feu clic per veure les observacions i els pronòstics meteorològics.

Per canviar el mapa: feu clic els botons verds amb una creu de color negre per apropar; al botó verd amb un guió per allunyar la imatge; o en les fletxes verdes per a mapes adjacents.


METAR-TAF: